Terminal Aerodrome Forecast
Issued by NWS

Home | Current Version | Previous Version | Graphics & Text | Print | Product List | Glossary Off
Versions: 1 2 3 4 5 6 7 8 9 10 11 12

642
FTUS43 KMPX 241120
TAFRNH
TAF
KRNH 241120Z 2412/2512 14004KT P6SM FEW050
     FM241600 18011G17KT P6SM SCT050 BKN250
     FM250000 17005KT P6SM BKN250
     FM250600 19004KT P6SM BKN100=

USA.gov is the U.S. government's official web portal to all federal, state and local government web resources and services.